createdAt,value
2023-04-17T00:00:08.371Z,22.67
2023-04-17T00:05:08.541Z,25.48
2023-04-17T00:10:08.609Z,24.42
2023-04-17T00:15:08.711Z,24.65
2023-04-17T00:20:08.814Z,26.73
2023-04-17T00:25:08.933Z,27.98
2023-04-17T00:30:07.978Z,27.88
2023-04-17T00:35:08.094Z,28.23
2023-04-17T00:40:08.185Z,32.25
2023-04-17T00:45:08.217Z,31.20
2023-04-17T00:50:08.318Z,27.90
2023-04-17T00:55:08.420Z,34.70
2023-04-17T01:00:08.453Z,29.23
2023-04-17T01:05:08.512Z,30.17
2023-04-17T01:10:08.610Z,30.15
2023-04-17T01:15:08.618Z,27.17
2023-04-17T01:20:08.684Z,33.35
2023-04-17T01:25:08.749Z,32.95
2023-04-17T01:30:08.869Z,33.78
2023-04-17T01:35:08.954Z,37.70
2023-04-17T01:40:08.006Z,30.27
2023-04-17T01:45:08.092Z,29.75
2023-04-17T01:50:08.109Z,36.45
2023-04-17T01:55:08.155Z,28.90
2023-04-17T02:00:08.279Z,34.20
2023-04-17T02:05:08.346Z,39.67
2023-04-17T02:10:08.473Z,36.33
2023-04-17T02:15:08.585Z,33.35
2023-04-17T02:20:08.663Z,34.67
2023-04-17T02:25:08.789Z,39.65
2023-04-17T02:30:08.868Z,31.20
2023-04-17T02:35:08.963Z,33.20
2023-04-17T02:40:08.031Z,38.33
2023-04-17T02:45:08.130Z,30.65
2023-04-17T02:50:08.215Z,32.88
2023-04-17T02:55:08.265Z,35.72
2023-04-17T03:00:12.762Z,34.40
2023-04-17T03:05:08.847Z,34.35
2023-04-17T03:10:08.948Z,34.78
2023-04-17T03:15:08.824Z,38.60
2023-04-17T03:20:08.112Z,39.83
2023-04-17T03:25:08.189Z,42.58
2023-04-17T03:30:08.170Z,36.65
2023-04-17T03:35:08.192Z,33.22
2023-04-17T03:40:08.231Z,38.10
2023-04-17T03:45:08.293Z,37.90
2023-04-17T03:50:08.348Z,37.85
2023-04-17T03:55:08.425Z,36.70
2023-04-17T04:00:08.478Z,41.80
2023-04-17T04:05:03.869Z,41.50
2023-04-17T04:10:03.564Z,46.00
2023-04-17T04:15:03.495Z,43.25
2023-04-17T04:20:03.247Z,46.40
2023-04-17T04:25:02.496Z,47.45
2023-04-17T04:30:03.780Z,54.08
2023-04-17T04:35:03.164Z,50.30
2023-04-17T04:40:02.870Z,44.85
2023-04-17T04:45:03.835Z,52.95
2023-04-17T04:50:03.488Z,48.95
2023-04-17T04:55:03.021Z,44.15
2023-04-17T05:00:02.406Z,45.28
2023-04-17T05:05:03.305Z,46.17
2023-04-17T05:10:02.639Z,53.53
2023-04-17T05:15:03.095Z,55.65
2023-04-17T05:20:02.222Z,40.95
2023-04-17T05:25:02.910Z,65.53
2023-04-17T05:30:03.120Z,53.10
2023-04-17T05:35:02.963Z,52.60
2023-04-17T05:40:02.496Z,52.05
2023-04-17T05:45:02.728Z,62.42
2023-04-17T05:50:02.950Z,57.72
2023-04-17T05:55:02.481Z,53.17
2023-04-17T06:00:02.778Z,56.67
2023-04-17T06:05:03.516Z,44.55
2023-04-17T06:10:03.109Z,56.05
2023-04-17T06:15:02.663Z,55.63
2023-04-17T06:20:03.197Z,60.00
2023-04-17T06:25:09.653Z,53.70
2023-04-17T06:30:03.107Z,66.85
2023-04-17T06:35:02.465Z,63.75
2023-04-17T06:40:03.790Z,56.22
2023-04-17T06:45:03.045Z,61.05
2023-04-17T06:50:02.512Z,57.10
2023-04-17T06:55:02.944Z,55.85
2023-04-17T07:00:02.433Z,56.25
2023-04-17T07:05:03.009Z,68.05
2023-04-17T07:10:02.685Z,56.70
2023-04-17T07:15:03.189Z,66.80
2023-04-17T07:20:04.111Z,53.67
2023-04-17T07:25:02.516Z,51.83
2023-04-17T07:30:03.336Z,59.30
2023-04-17T07:35:02.592Z,53.45
2023-04-17T07:40:02.971Z,57.40
2023-04-17T07:45:02.229Z,58.92
2023-04-17T07:50:02.582Z,60.70
2023-04-17T07:55:02.794Z,66.40
2023-04-17T08:00:03.371Z,57.05
2023-04-17T08:05:03.833Z,60.92
2023-04-17T08:10:03.243Z,57.97
2023-04-17T08:15:03.329Z,55.45
2023-04-17T08:20:02.788Z,52.70
2023-04-17T08:25:03.145Z,48.17
2023-04-17T08:30:02.811Z,50.47
2023-04-17T08:35:03.354Z,46.05
2023-04-17T08:40:02.718Z,50.40
2023-04-17T08:45:03.017Z,50.83
2023-04-17T08:50:02.179Z,47.63
2023-04-17T08:55:02.861Z,38.15
2023-04-17T09:00:03.218Z,52.83
2023-04-17T09:05:02.990Z,39.03
2023-04-17T09:10:02.341Z,40.95
2023-04-17T09:15:02.819Z,32.83
2023-04-17T09:20:03.666Z,32.00
2023-04-17T09:25:02.917Z,33.83
2023-04-17T09:30:03.602Z,32.28
2023-04-17T09:35:03.225Z,36.08
2023-04-17T09:40:02.532Z,34.08
2023-04-17T09:45:03.950Z,27.88
2023-04-17T09:50:02.126Z,26.60
2023-04-17T09:55:02.692Z,28.17
2023-04-17T10:00:03.109Z,21.00
2023-04-17T10:05:02.658Z,24.80
2023-04-17T10:10:02.908Z,29.38
2023-04-17T10:15:04.164Z,26.95
2023-04-17T10:20:02.804Z,25.70
2023-04-17T10:25:03.143Z,24.52
2023-04-17T10:30:03.350Z,21.55
2023-04-17T10:35:02.485Z,21.80
2023-04-17T10:40:03.101Z,17.70
2023-04-17T10:45:02.337Z,17.80
2023-04-17T10:50:02.648Z,20.83
2023-04-17T10:55:04.802Z,19.27
2023-04-17T11:00:05.480Z,21.83
2023-04-17T11:05:03.423Z,17.98
2023-04-17T11:10:03.184Z,15.35
2023-04-17T11:15:02.442Z,18.30
2023-04-17T11:20:03.290Z,18.35
2023-04-17T11:25:02.678Z,14.40
2023-04-17T11:30:03.197Z,13.93
2023-04-17T11:35:02.569Z,19.38
2023-04-17T11:40:02.912Z,15.10
2023-04-17T11:45:04.355Z,15.50
2023-04-17T11:50:03.498Z,21.15
2023-04-17T11:55:03.821Z,15.10
2023-04-17T12:00:03.099Z,13.30
2023-04-17T12:05:02.854Z,14.57
2023-04-17T12:10:02.578Z,12.48
2023-04-17T12:15:03.202Z,15.38
2023-04-17T12:20:02.722Z,16.50
2023-04-17T12:25:03.100Z,16.55
2023-04-17T12:30:02.442Z,16.42
2023-04-17T12:35:02.752Z,13.38
2023-04-17T12:40:03.079Z,12.98
2023-04-17T12:45:04.286Z,12.88
2023-04-17T12:50:02.491Z,12.20
2023-04-17T12:55:03.315Z,10.77
2023-04-17T13:00:03.397Z,13.13
2023-04-17T13:05:03.193Z,14.15
2023-04-17T13:10:03.290Z,13.70
2023-04-17T13:15:03.137Z,11.55
2023-04-17T13:20:03.639Z,9.30
2023-04-17T13:25:03.269Z,12.70
2023-04-17T13:30:02.853Z,12.68
2023-04-17T13:35:03.449Z,11.50
2023-04-17T13:40:03.098Z,9.30
2023-04-17T13:45:02.386Z,9.75
2023-04-17T13:50:02.864Z,12.73
2023-04-17T13:55:03.181Z,10.25
2023-04-17T14:00:03.181Z,17.50
2023-04-17T14:05:02.605Z,20.55
2023-04-17T14:10:02.919Z,14.50
2023-04-17T14:15:03.326Z,13.15
2023-04-17T14:20:02.928Z,9.90
2023-04-17T14:25:02.696Z,11.38
2023-04-17T14:30:04.106Z,9.57
2023-04-17T14:35:02.562Z,10.98
2023-04-17T14:40:03.326Z,7.80
2023-04-17T14:45:02.776Z,7.10
2023-04-17T14:50:04.061Z,10.90
2023-04-17T14:55:02.418Z,10.27
2023-04-17T15:00:02.987Z,7.20
2023-04-17T15:05:02.573Z,6.75
2023-04-17T15:10:02.750Z,6.32
2023-04-17T15:15:03.155Z,7.97
2023-04-17T15:20:02.408Z,9.07
2023-04-17T15:25:03.002Z,7.28
2023-04-17T15:30:02.176Z,5.80
2023-04-17T15:35:03.004Z,6.78
2023-04-17T15:40:02.221Z,8.60
2023-04-17T15:45:02.905Z,10.80
2023-04-17T15:50:03.198Z,9.93
2023-04-17T15:55:02.554Z,8.00
2023-04-17T16:00:02.769Z,8.98
2023-04-17T16:05:02.894Z,9.05
2023-04-17T16:10:03.265Z,12.25
2023-04-17T16:15:02.551Z,8.65
2023-04-17T16:20:03.225Z,9.00
2023-04-17T16:25:02.547Z,8.18
2023-04-17T16:30:03.287Z,7.50
2023-04-17T16:35:02.861Z,8.63
2023-04-17T16:40:03.179Z,5.45
2023-04-17T16:45:03.670Z,11.60
2023-04-17T16:50:03.113Z,13.27
2023-04-17T16:55:03.450Z,8.20
2023-04-17T17:00:02.775Z,8.18
2023-04-17T17:05:03.448Z,7.95
2023-04-17T17:10:02.993Z,9.25
2023-04-17T17:15:02.696Z,8.43
2023-04-17T17:20:02.390Z,9.00
2023-04-17T17:25:03.005Z,8.32
2023-04-17T17:30:02.193Z,8.30
2023-04-17T17:35:02.515Z,8.52
2023-04-17T17:40:02.997Z,10.75
2023-04-17T17:45:02.837Z,12.93
2023-04-17T17:50:03.094Z,12.05
2023-04-17T17:55:02.716Z,9.05
2023-04-17T18:00:03.152Z,10.85
2023-04-17T18:05:03.270Z,10.55
2023-04-17T18:10:02.410Z,10.77
2023-04-17T18:15:03.303Z,10.35
2023-04-17T18:20:02.509Z,10.80
2023-04-17T18:25:03.197Z,12.48
2023-04-17T18:30:02.711Z,8.90
2023-04-17T18:35:03.385Z,12.82
2023-04-17T18:40:02.983Z,10.48
2023-04-17T18:45:02.339Z,10.32
2023-04-17T18:50:02.706Z,12.27
2023-04-17T18:55:03.496Z,9.10
2023-04-17T19:00:02.898Z,8.25
2023-04-17T19:05:03.121Z,10.13
2023-04-17T19:10:02.743Z,10.57
2023-04-17T19:15:03.032Z,8.05
2023-04-17T19:20:02.812Z,8.77
2023-04-17T19:25:03.130Z,8.52
2023-04-17T19:30:03.111Z,7.25
2023-04-17T19:35:02.619Z,9.15
2023-04-17T19:40:08.678Z,9.88
2023-04-17T19:45:02.946Z,7.18
2023-04-17T19:50:02.659Z,6.65
2023-04-17T19:55:03.217Z,6.28
2023-04-17T20:00:02.626Z,8.52
2023-04-17T20:05:03.053Z,7.07
2023-04-17T20:10:02.337Z,7.38
2023-04-17T20:15:03.914Z,6.32
2023-04-17T20:20:03.402Z,6.03
2023-04-17T20:25:02.771Z,8.38
2023-04-17T20:30:03.543Z,5.22
2023-04-17T20:35:03.052Z,4.82
2023-04-17T20:40:02.610Z,8.27
2023-04-17T20:45:03.211Z,4.97
2023-04-17T20:50:02.423Z,6.30
2023-04-17T20:55:03.857Z,7.20
2023-04-17T21:00:03.258Z,6.20
2023-04-17T21:05:15.301Z,8.68
2023-04-17T21:10:08.358Z,9.13
2023-04-17T21:15:08.419Z,13.02
2023-04-17T21:20:08.476Z,7.25
2023-04-17T21:25:08.530Z,6.32
2023-04-17T21:30:08.575Z,6.65
2023-04-17T21:35:08.612Z,5.35
2023-04-17T21:40:08.731Z,8.48
2023-04-17T21:45:08.825Z,7.28
2023-04-17T21:50:08.948Z,8.02
2023-04-17T21:55:08.025Z,6.85
2023-04-17T22:00:08.186Z,7.32
2023-04-17T22:05:08.227Z,7.60
2023-04-17T22:10:08.356Z,8.50
2023-04-17T22:15:08.451Z,7.60
2023-04-17T22:20:08.563Z,9.90
2023-04-17T22:25:08.647Z,9.23
2023-04-17T22:30:08.830Z,7.32
2023-04-17T22:35:08.926Z,8.50
2023-04-17T22:40:09.001Z,6.40
2023-04-17T22:45:08.036Z,8.02
2023-04-17T22:50:08.126Z,9.15
2023-04-17T22:55:08.198Z,10.68
2023-04-17T23:01:13.269Z,10.05
2023-04-17T23:05:08.333Z,7.28
2023-04-17T23:10:08.526Z,9.15
2023-04-17T23:15:08.608Z,8.55
2023-04-17T23:20:08.705Z,6.80
2023-04-17T23:25:08.780Z,6.95
2023-04-17T23:30:08.966Z,6.85
2023-04-17T23:35:08.085Z,12.52
2023-04-17T23:40:08.195Z,10.18
2023-04-17T23:45:08.256Z,9.30
2023-04-17T23:50:08.389Z,8.73
2023-04-17T23:55:08.500Z,10.45
